createdAt,value
2022-11-08T00:00:44.770Z,14.63
2022-11-08T00:03:13.148Z,14.65
2022-11-08T00:05:58.798Z,14.63
2022-11-08T00:08:44.790Z,14.60
2022-11-08T00:11:30.393Z,14.67
2022-11-08T00:13:58.702Z,14.71
2022-11-08T00:16:28.490Z,14.73
2022-11-08T00:18:56.753Z,14.71
2022-11-08T00:21:25.070Z,14.74
2022-11-08T00:23:53.323Z,14.67
2022-11-08T00:26:21.619Z,14.74
2022-11-08T00:28:49.947Z,14.68
2022-11-08T00:31:18.165Z,14.73
2022-11-08T00:33:47.785Z,14.73
2022-11-08T00:36:16.148Z,14.63
2022-11-08T00:38:44.866Z,14.72
2022-11-08T00:41:13.672Z,14.64
2022-11-08T00:43:41.891Z,14.62
2022-11-08T00:46:10.307Z,14.48
2022-11-08T00:48:38.728Z,14.62
2022-11-08T00:51:11.511Z,14.61
2022-11-08T00:53:40.494Z,14.65
2022-11-08T00:56:12.503Z,14.57
2022-11-08T00:58:41.466Z,14.57
2022-11-08T01:01:11.848Z,14.55
2022-11-08T01:03:40.245Z,14.47
2022-11-08T01:06:12.570Z,14.52
2022-11-08T01:08:41.129Z,14.46
2022-11-08T01:11:13.336Z,14.59
2022-11-08T01:13:42.401Z,14.51
2022-11-08T01:16:14.032Z,14.49
2022-11-08T01:18:42.462Z,14.52
2022-11-08T01:21:13.940Z,14.54
2022-11-08T01:23:43.907Z,14.53
2022-11-08T01:26:16.072Z,14.49
2022-11-08T01:28:44.515Z,14.53
2022-11-08T01:31:15.438Z,14.54
2022-11-08T01:33:49.917Z,14.49
2022-11-08T01:36:24.057Z,14.47
2022-11-08T01:38:53.300Z,14.37
2022-11-08T01:41:24.210Z,14.49
2022-11-08T01:43:53.405Z,14.48
2022-11-08T01:46:48.708Z,14.50
2022-11-08T01:49:38.901Z,14.53
2022-11-08T01:52:22.499Z,14.45
2022-11-08T01:54:59.381Z,14.37
2022-11-08T01:57:33.262Z,14.20
2022-11-08T02:00:07.515Z,14.28
2022-11-08T02:02:40.603Z,14.39
2022-11-08T02:05:25.670Z,14.34
2022-11-08T02:08:03.740Z,14.39
2022-11-08T02:10:37.359Z,14.33
2022-11-08T02:13:12.091Z,14.34
2022-11-08T02:15:42.766Z,14.41
2022-11-08T02:18:11.340Z,14.33
2022-11-08T02:20:41.824Z,14.34
2022-11-08T02:23:20.011Z,14.39
2022-11-08T02:25:49.773Z,14.39
2022-11-08T02:28:18.157Z,14.48
2022-11-08T02:30:46.716Z,14.48
2022-11-08T02:33:20.107Z,14.42
2022-11-08T02:35:53.909Z,14.25
2022-11-08T02:38:23.406Z,14.08
2022-11-08T02:40:55.422Z,13.92
2022-11-08T02:43:25.301Z,13.96
2022-11-08T02:45:54.363Z,13.97
2022-11-08T02:48:22.718Z,13.90
2022-11-08T02:50:51.061Z,13.84
2022-11-08T02:53:20.141Z,13.86
2022-11-08T02:55:48.427Z,13.88
2022-11-08T02:58:18.372Z,13.86
2022-11-08T03:00:46.822Z,13.81
2022-11-08T03:03:15.056Z,13.75
2022-11-08T03:05:43.805Z,13.63
2022-11-08T03:08:12.036Z,13.65
2022-11-08T03:10:40.267Z,13.49
2022-11-08T03:13:08.817Z,13.39
2022-11-08T03:15:38.382Z,13.24
2022-11-08T03:18:07.097Z,13.08
2022-11-08T03:20:35.407Z,12.92
2022-11-08T03:23:06.657Z,12.91
2022-11-08T03:25:35.318Z,12.80
2022-11-08T03:28:04.824Z,12.66
2022-11-08T03:30:33.266Z,12.69
2022-11-08T03:33:03.430Z,12.43
2022-11-08T03:35:32.730Z,12.51
2022-11-08T03:38:00.937Z,12.46
2022-11-08T03:40:29.544Z,12.46
2022-11-08T03:42:58.315Z,12.43
2022-11-08T03:45:26.649Z,12.31
2022-11-08T03:47:54.935Z,12.35
2022-11-08T03:50:24.655Z,12.36
2022-11-08T03:52:55.325Z,12.17
2022-11-08T03:55:25.033Z,12.33
2022-11-08T03:57:53.721Z,12.36
2022-11-08T04:00:24.239Z,12.29
2022-11-08T04:02:55.886Z,12.40
2022-11-08T04:05:25.898Z,12.47
2022-11-08T04:07:54.217Z,12.50
2022-11-08T04:10:22.467Z,12.57
2022-11-08T04:13:08.320Z,12.56
2022-11-08T04:15:36.590Z,12.54
2022-11-08T04:18:22.541Z,12.66
2022-11-08T04:21:09.797Z,12.60
2022-11-08T04:23:38.890Z,12.60
2022-11-08T04:26:11.610Z,12.61
2022-11-08T04:28:41.652Z,12.62
2022-11-08T04:31:13.241Z,12.64
2022-11-08T04:33:42.008Z,12.56
2022-11-08T04:36:14.258Z,12.56
2022-11-08T04:38:42.525Z,12.67
2022-11-08T04:41:13.679Z,12.74
2022-11-08T04:43:42.122Z,12.81
2022-11-08T04:46:13.238Z,12.76
2022-11-08T04:48:41.756Z,12.77
2022-11-08T04:51:15.750Z,12.76
2022-11-08T04:53:44.377Z,12.82
2022-11-08T04:56:15.691Z,12.89
2022-11-08T04:58:45.742Z,12.80
2022-11-08T05:01:16.399Z,12.92
2022-11-08T05:03:46.209Z,12.92
2022-11-08T05:06:19.398Z,12.82
2022-11-08T05:08:47.872Z,12.92
2022-11-08T05:11:18.309Z,12.88
2022-11-08T05:13:47.248Z,12.71
2022-11-08T05:16:17.860Z,12.88
2022-11-08T05:18:46.654Z,12.90
2022-11-08T05:21:36.722Z,12.91
2022-11-08T05:24:08.531Z,12.83
2022-11-08T05:26:38.874Z,12.85
2022-11-08T05:29:07.361Z,12.92
2022-11-08T05:31:35.930Z,12.13
2022-11-08T05:34:04.548Z,12.74
2022-11-08T05:36:34.435Z,12.07
2022-11-08T05:39:02.949Z,12.77
2022-11-08T05:41:31.515Z,12.85
2022-11-08T05:43:59.768Z,12.82
2022-11-08T05:46:28.105Z,12.93
2022-11-08T05:48:56.517Z,12.93
2022-11-08T05:51:24.819Z,12.38
2022-11-08T05:53:54.392Z,12.83
2022-11-08T05:56:22.703Z,12.90
2022-11-08T05:58:50.977Z,12.73
2022-11-08T06:01:21.301Z,12.90
2022-11-08T06:03:50.002Z,12.81
2022-11-08T06:06:21.419Z,12.95
2022-11-08T06:08:52.196Z,12.89
2022-11-08T06:11:27.140Z,12.91
2022-11-08T06:13:56.151Z,12.94
2022-11-08T06:16:26.231Z,12.90
2022-11-08T06:18:54.573Z,12.89
2022-11-08T06:21:23.528Z,12.94
2022-11-08T06:23:54.605Z,12.98
2022-11-08T06:26:25.103Z,13.01
2022-11-08T06:28:53.470Z,13.09
2022-11-08T06:31:21.814Z,13.08
2022-11-08T06:33:50.325Z,13.07
2022-11-08T06:36:18.774Z,13.14
2022-11-08T06:38:47.080Z,13.19
2022-11-08T06:41:20.382Z,13.10
2022-11-08T06:43:50.469Z,13.22
2022-11-08T06:46:18.905Z,13.16
2022-11-08T06:48:47.125Z,13.33
2022-11-08T06:51:15.695Z,13.32
2022-11-08T06:53:44.101Z,13.24
2022-11-08T06:56:12.878Z,13.28
2022-11-08T06:58:41.136Z,13.35
2022-11-08T07:01:12.166Z,13.34
2022-11-08T07:03:40.427Z,13.39
2022-11-08T07:06:09.910Z,13.54
2022-11-08T07:08:38.275Z,13.52
2022-11-08T07:11:07.759Z,13.65
2022-11-08T07:13:36.152Z,13.62
2022-11-08T07:16:04.837Z,13.64
2022-11-08T07:18:34.519Z,13.06
2022-11-08T07:21:03.930Z,13.63
2022-11-08T07:23:32.866Z,13.69
2022-11-08T07:26:05.751Z,13.71
2022-11-08T07:28:34.210Z,13.73
2022-11-08T07:31:04.841Z,13.68
2022-11-08T07:33:35.062Z,13.76
2022-11-08T07:36:03.559Z,13.94
2022-11-08T07:38:31.928Z,13.75
2022-11-08T07:41:01.818Z,13.83
2022-11-08T07:43:30.894Z,13.89
2022-11-08T07:46:11.212Z,13.88
2022-11-08T07:48:40.796Z,13.92
2022-11-08T07:51:09.205Z,13.83
2022-11-08T07:53:37.448Z,13.87
2022-11-08T07:56:06.282Z,13.82
2022-11-08T07:58:34.588Z,13.76
2022-11-08T08:01:04.270Z,13.82
2022-11-08T08:03:32.946Z,13.81
2022-11-08T08:06:02.922Z,13.91
2022-11-08T08:08:32.071Z,13.93
2022-11-08T08:11:01.925Z,13.67
2022-11-08T08:13:30.992Z,13.98
2022-11-08T08:16:01.293Z,13.97
2022-11-08T08:18:30.275Z,14.28
2022-11-08T08:20:58.829Z,14.26
2022-11-08T08:23:29.035Z,14.24
2022-11-08T08:25:57.848Z,14.25
2022-11-08T08:28:26.216Z,14.28
2022-11-08T08:30:54.533Z,14.36
2022-11-08T08:33:30.281Z,14.40
2022-11-08T08:36:01.056Z,14.43
2022-11-08T08:38:31.273Z,14.42
2022-11-08T08:41:00.054Z,14.28
2022-11-08T08:43:28.587Z,14.35
2022-11-08T08:46:00.243Z,14.38
2022-11-08T08:48:28.520Z,14.44
2022-11-08T08:50:56.902Z,14.55
2022-11-08T08:53:25.293Z,14.60
2022-11-08T08:55:54.965Z,14.66
2022-11-08T08:58:23.986Z,14.60
2022-11-08T09:03:40.726Z,14.80
2022-11-08T09:06:09.217Z,14.83
2022-11-08T09:08:37.590Z,14.77
2022-11-08T09:11:07.546Z,14.69
2022-11-08T09:13:35.838Z,14.78
2022-11-08T09:16:04.163Z,14.86
2022-11-08T09:18:33.229Z,14.85
2022-11-08T09:21:04.277Z,14.84
2022-11-08T09:23:33.090Z,14.73
2022-11-08T09:26:03.964Z,14.79
2022-11-08T09:28:35.194Z,14.83
2022-11-08T09:31:06.386Z,14.65
2022-11-08T09:33:34.819Z,14.75
2022-11-08T09:36:03.815Z,14.69
2022-11-08T09:38:32.298Z,14.84
2022-11-08T09:41:18.563Z,14.76
2022-11-08T09:44:11.065Z,14.76
2022-11-08T09:46:44.948Z,14.81
2022-11-08T09:49:21.139Z,14.72
2022-11-08T09:51:50.237Z,14.76
2022-11-08T09:54:25.027Z,14.75
2022-11-08T09:56:55.629Z,14.63
2022-11-08T09:59:37.555Z,14.12
2022-11-08T10:02:18.759Z,14.72
2022-11-08T10:04:56.493Z,14.77
2022-11-08T10:07:34.534Z,14.15
2022-11-08T10:10:26.462Z,14.86
2022-11-08T10:13:06.306Z,14.84
2022-11-08T10:15:43.549Z,14.89
2022-11-08T10:18:52.849Z,14.92
2022-11-08T10:21:49.339Z,14.96
2022-11-08T10:24:24.143Z,14.91
2022-11-08T10:26:54.726Z,15.06
2022-11-08T10:29:27.253Z,15.04
2022-11-08T10:32:05.017Z,15.11
2022-11-08T10:34:42.792Z,15.11
2022-11-08T10:37:16.315Z,15.08
2022-11-08T10:39:52.700Z,15.15
2022-11-08T10:42:31.084Z,15.20
2022-11-08T10:44:59.374Z,15.26
2022-11-08T10:47:32.005Z,15.30
2022-11-08T10:50:04.095Z,15.32
2022-11-08T10:52:39.332Z,15.43
2022-11-08T10:55:09.480Z,15.39
2022-11-08T10:57:43.628Z,15.58
2022-11-08T11:00:28.473Z,15.59
2022-11-08T11:03:00.993Z,15.72
2022-11-08T11:05:33.723Z,15.77
2022-11-08T11:08:14.282Z,15.86
2022-11-08T11:10:44.570Z,16.00
2022-11-08T11:13:19.181Z,16.19
2022-11-08T11:15:51.049Z,16.14
2022-11-08T11:18:34.175Z,16.30
2022-11-08T11:21:09.245Z,16.33
2022-11-08T11:23:42.896Z,16.49
2022-11-08T11:26:28.517Z,16.61
2022-11-08T11:29:07.287Z,16.67
2022-11-08T11:31:38.108Z,16.80
2022-11-08T11:34:34.555Z,16.71
2022-11-08T11:37:15.691Z,16.87
2022-11-08T11:39:55.240Z,17.03
2022-11-08T11:42:45.189Z,17.06
2022-11-08T11:45:18.785Z,17.18
2022-11-08T11:47:51.305Z,17.23
2022-11-08T11:50:31.046Z,17.30
2022-11-08T11:53:02.274Z,17.37
2022-11-08T11:55:45.661Z,17.40
2022-11-08T11:58:31.882Z,17.50
2022-11-08T12:01:14.468Z,17.34
2022-11-08T12:04:15.147Z,17.27
2022-11-08T12:06:58.632Z,17.20
2022-11-08T12:09:46.917Z,17.27
2022-11-08T12:12:34.523Z,17.09
2022-11-08T12:15:10.370Z,16.98
2022-11-08T12:18:41.496Z,16.97
2022-11-08T12:21:15.555Z,16.87
2022-11-08T12:24:21.015Z,16.77
2022-11-08T12:26:57.899Z,16.79
2022-11-08T12:29:36.903Z,16.82
2022-11-08T12:32:26.717Z,16.87
2022-11-08T12:35:17.858Z,16.69
2022-11-08T12:37:59.681Z,16.89
2022-11-08T12:40:40.273Z,16.88
2022-11-08T12:43:27.193Z,16.91
2022-11-08T12:46:04.814Z,16.80
2022-11-08T12:48:58.161Z,16.86
2022-11-08T12:51:37.073Z,16.77
2022-11-08T12:54:24.287Z,16.79
2022-11-08T12:56:57.607Z,16.85
2022-11-08T12:59:30.465Z,16.78
2022-11-08T13:02:02.045Z,16.72
2022-11-08T13:04:44.045Z,16.69
2022-11-08T13:07:22.871Z,16.76
2022-11-08T13:09:57.798Z,16.84
2022-11-08T13:12:50.018Z,16.83
2022-11-08T13:15:22.082Z,16.82
2022-11-08T13:18:26.230Z,16.60
2022-11-08T13:20:54.491Z,16.77
2022-11-08T13:23:28.609Z,16.69
2022-11-08T13:26:17.866Z,16.66
2022-11-08T13:28:48.096Z,16.62
2022-11-08T13:31:41.561Z,16.63
2022-11-08T13:34:25.739Z,16.58
2022-11-08T13:37:10.380Z,16.61
2022-11-08T13:40:00.270Z,16.43
2022-11-08T13:42:54.950Z,16.59
2022-11-08T13:45:33.174Z,16.42
2022-11-08T13:48:04.496Z,16.44
2022-11-08T13:51:03.867Z,16.35
2022-11-08T13:53:49.724Z,16.36
2022-11-08T13:56:50.968Z,16.34
2022-11-08T13:59:59.302Z,16.33
2022-11-08T14:02:37.783Z,16.36
2022-11-08T14:05:30.872Z,16.33
2022-11-08T14:08:29.832Z,16.51
2022-11-08T14:11:45.723Z,16.50
2022-11-08T14:14:38.785Z,16.61
2022-11-08T14:17:34.410Z,16.72
2022-11-08T14:20:24.421Z,16.69
2022-11-08T14:22:52.963Z,16.80
2022-11-08T14:25:28.827Z,16.82
2022-11-08T14:27:57.961Z,16.75
2022-11-08T14:30:26.818Z,16.74
2022-11-08T14:33:19.275Z,16.74
2022-11-08T14:35:56.335Z,16.84
2022-11-08T14:38:25.158Z,16.75
2022-11-08T14:40:56.579Z,16.83
2022-11-08T14:43:26.894Z,16.88
2022-11-08T14:45:58.074Z,16.92
2022-11-08T14:48:30.750Z,16.92
2022-11-08T14:51:03.615Z,16.79
2022-11-08T14:53:33.777Z,16.80
2022-11-08T14:56:16.857Z,16.85
2022-11-08T14:58:46.027Z,16.82
2022-11-08T15:01:15.901Z,16.78
2022-11-08T15:03:54.346Z,16.80
2022-11-08T15:06:24.361Z,16.72
2022-11-08T15:08:55.228Z,16.73
2022-11-08T15:11:30.191Z,16.68
2022-11-08T15:14:03.271Z,16.72
2022-11-08T15:16:41.676Z,16.74
2022-11-08T15:19:30.846Z,16.67
2022-11-08T15:22:00.166Z,16.58
2022-11-08T15:24:38.216Z,16.63
2022-11-08T15:27:15.777Z,16.59
2022-11-08T15:30:01.074Z,16.65
2022-11-08T15:32:36.723Z,16.43
2022-11-08T15:35:08.438Z,16.47
2022-11-08T15:37:39.781Z,16.43
2022-11-08T15:40:20.063Z,16.44
2022-11-08T15:42:51.392Z,16.40
2022-11-08T15:45:28.790Z,16.19
2022-11-08T15:48:12.679Z,16.33
2022-11-08T15:50:42.437Z,16.25
2022-11-08T15:53:11.402Z,16.32
2022-11-08T15:55:45.099Z,16.11
2022-11-08T15:58:18.545Z,16.34
2022-11-08T16:00:48.907Z,16.26
2022-11-08T16:03:17.585Z,16.25
2022-11-08T16:05:47.297Z,16.19
2022-11-08T16:08:19.935Z,16.20
2022-11-08T16:10:51.425Z,16.21
2022-11-08T16:13:23.798Z,16.17
2022-11-08T16:15:52.043Z,16.14
2022-11-08T16:18:20.869Z,16.14
2022-11-08T16:20:50.935Z,16.15
2022-11-08T16:23:19.425Z,16.08
2022-11-08T16:25:50.379Z,16.14
2022-11-08T16:28:23.275Z,16.09
2022-11-08T16:30:52.014Z,16.11
2022-11-08T16:33:23.084Z,16.05
2022-11-08T16:35:55.236Z,16.03
2022-11-08T16:38:27.388Z,15.91
2022-11-08T16:40:55.843Z,15.89
2022-11-08T16:43:24.128Z,15.88
2022-11-08T16:46:05.603Z,15.96
2022-11-08T16:48:37.029Z,15.89
2022-11-08T16:51:15.843Z,15.92
2022-11-08T16:53:44.085Z,15.83
2022-11-08T16:56:12.374Z,15.38
2022-11-08T16:58:40.833Z,16.02
2022-11-08T17:01:14.976Z,16.01
2022-11-08T17:03:44.064Z,15.99
2022-11-08T17:06:18.603Z,15.99
2022-11-08T17:08:47.181Z,15.96
2022-11-08T17:11:19.560Z,15.90
2022-11-08T17:13:48.811Z,15.98
2022-11-08T17:16:18.746Z,15.98
2022-11-08T17:18:52.215Z,15.97
2022-11-08T17:21:44.377Z,15.82
2022-11-08T17:24:13.560Z,15.96
2022-11-08T17:26:44.087Z,15.94
2022-11-08T17:29:12.387Z,15.87
2022-11-08T17:31:43.112Z,15.69
2022-11-08T17:34:11.503Z,15.73
2022-11-08T17:36:41.201Z,15.86
2022-11-08T17:39:11.782Z,15.93
2022-11-08T17:41:40.080Z,15.92
2022-11-08T17:44:08.615Z,15.95
2022-11-08T17:46:36.914Z,15.97
2022-11-08T17:49:05.190Z,15.89
2022-11-08T17:51:33.451Z,15.91
2022-11-08T17:54:03.145Z,15.90
2022-11-08T17:56:31.423Z,15.96
2022-11-08T17:58:59.635Z,15.92
2022-11-08T18:01:28.080Z,15.92
2022-11-08T18:03:56.455Z,15.96
2022-11-08T18:06:24.802Z,15.94
2022-11-08T18:08:53.076Z,15.95
2022-11-08T18:11:22.745Z,15.93
2022-11-08T18:13:51.514Z,16.05
2022-11-08T18:16:22.764Z,16.03
2022-11-08T18:18:52.112Z,16.07
2022-11-08T18:21:21.168Z,16.07
2022-11-08T18:23:50.265Z,16.07
2022-11-08T18:26:19.569Z,16.07
2022-11-08T18:28:49.307Z,16.00
2022-11-08T18:31:20.203Z,16.05
2022-11-08T18:33:49.431Z,16.06
2022-11-08T18:36:20.063Z,16.09
2022-11-08T18:38:49.233Z,15.98
2022-11-08T18:41:22.064Z,16.00
2022-11-08T18:43:52.247Z,16.13
2022-11-08T18:46:26.010Z,16.10
2022-11-08T18:48:54.629Z,16.14
2022-11-08T18:51:24.337Z,16.20
2022-11-08T18:53:53.186Z,16.20
2022-11-08T18:56:22.253Z,16.20
2022-11-08T18:58:52.915Z,16.23
2022-11-08T19:01:21.160Z,16.21
2022-11-08T19:03:49.709Z,16.20
2022-11-08T19:06:19.336Z,16.24
2022-11-08T19:08:47.665Z,16.23
2022-11-08T19:11:20.391Z,16.20
2022-11-08T19:13:49.460Z,16.25
2022-11-08T19:16:21.876Z,16.23
2022-11-08T19:18:50.639Z,16.24
2022-11-08T19:21:21.149Z,16.09
2022-11-08T19:23:50.192Z,16.26
2022-11-08T19:26:22.006Z,16.31
2022-11-08T19:28:51.806Z,16.29
2022-11-08T19:31:24.376Z,16.20
2022-11-08T19:33:54.398Z,16.30
2022-11-08T19:36:24.982Z,16.27
2022-11-08T19:38:54.961Z,16.34
2022-11-08T19:41:25.781Z,16.37
2022-11-08T19:43:55.073Z,16.36
2022-11-08T19:46:28.864Z,16.39
2022-11-08T19:48:57.373Z,16.52
2022-11-08T19:51:27.810Z,16.68
2022-11-08T19:53:57.033Z,16.67
2022-11-08T19:56:43.424Z,16.64
2022-11-08T19:59:13.867Z,16.52
2022-11-08T20:01:43.701Z,16.56
2022-11-08T20:04:13.809Z,16.51
2022-11-08T20:06:42.860Z,16.38
2022-11-08T20:09:12.837Z,15.77
2022-11-08T20:11:42.833Z,16.47
2022-11-08T20:14:14.407Z,16.43
2022-11-08T20:16:50.682Z,16.47
2022-11-08T20:19:21.499Z,16.54
2022-11-08T20:21:49.761Z,16.41
2022-11-08T20:24:18.826Z,16.45
2022-11-08T20:26:47.390Z,16.45
2022-11-08T20:29:15.870Z,16.42
2022-11-08T20:31:45.775Z,16.40
2022-11-08T20:34:14.345Z,16.46
2022-11-08T20:36:44.184Z,16.50
2022-11-08T20:39:14.378Z,16.55
2022-11-08T20:41:43.331Z,16.56
2022-11-08T20:44:12.279Z,16.55
2022-11-08T20:46:40.828Z,16.44
2022-11-08T20:49:10.540Z,16.33
2022-11-08T20:51:39.019Z,16.25
2022-11-08T20:54:07.604Z,16.06
2022-11-08T20:56:35.956Z,16.18
2022-11-08T20:59:04.991Z,16.10
2022-11-08T21:01:34.272Z,16.10
2022-11-08T21:04:03.207Z,16.11
2022-11-08T21:06:35.864Z,16.05
2022-11-08T21:11:55.154Z,16.04
2022-11-08T21:14:24.710Z,16.07
2022-11-08T21:17:20.399Z,16.26
2022-11-08T21:19:41.906Z,16.27
2022-11-08T21:22:17.215Z,16.22
2022-11-08T21:24:47.859Z,16.24
2022-11-08T21:27:16.293Z,16.21
2022-11-08T21:29:44.660Z,16.25
2022-11-08T21:32:12.973Z,16.25
2022-11-08T21:34:45.653Z,16.27
2022-11-08T21:37:15.924Z,16.22
2022-11-08T21:39:44.212Z,16.21
2022-11-08T21:42:13.868Z,16.25
2022-11-08T21:44:42.263Z,16.19
2022-11-08T21:47:11.049Z,16.28
2022-11-08T21:49:39.423Z,16.25
2022-11-08T21:52:07.695Z,16.24
2022-11-08T21:54:37.410Z,16.21
2022-11-08T21:57:05.796Z,16.22
2022-11-08T21:59:34.076Z,16.09
2022-11-08T22:02:02.425Z,16.02
2022-11-08T22:04:30.918Z,16.02
2022-11-08T22:06:59.264Z,15.99
2022-11-08T22:09:27.730Z,15.97
2022-11-08T22:11:57.509Z,15.93
2022-11-08T22:14:25.868Z,15.85
2022-11-08T22:16:54.177Z,15.90
2022-11-08T22:19:22.557Z,15.90
2022-11-08T22:21:50.815Z,15.89
2022-11-08T22:24:21.134Z,15.76
2022-11-08T22:26:50.877Z,15.95
2022-11-08T22:29:21.077Z,15.99
2022-11-08T22:31:49.835Z,16.05
2022-11-08T22:34:18.271Z,16.02
2022-11-08T22:36:46.682Z,15.96
2022-11-08T22:39:16.077Z,15.95
2022-11-08T22:41:45.351Z,15.93
2022-11-08T22:44:14.465Z,16.01
2022-11-08T22:46:46.173Z,16.07
2022-11-08T22:49:15.396Z,16.06
2022-11-08T22:51:44.568Z,16.05
2022-11-08T22:54:12.927Z,16.11
2022-11-08T22:56:41.740Z,16.13
2022-11-08T22:59:10.105Z,16.01
2022-11-08T23:01:38.447Z,16.04
2022-11-08T23:04:11.025Z,16.09
2022-11-08T23:06:40.540Z,16.13
2022-11-08T23:09:09.788Z,16.12
2022-11-08T23:11:55.729Z,16.14
2022-11-08T23:14:46.935Z,16.12
2022-11-08T23:17:15.308Z,16.15
2022-11-08T23:20:02.787Z,16.06
2022-11-08T23:22:48.710Z,16.09
2022-11-08T23:25:17.146Z,16.07
2022-11-08T23:28:03.044Z,16.06
2022-11-08T23:30:48.617Z,16.02
2022-11-08T23:33:17.262Z,15.38
2022-11-08T23:36:01.028Z,16.01
2022-11-08T23:38:29.928Z,16.09
2022-11-08T23:41:17.670Z,15.96
2022-11-08T23:44:03.687Z,15.96
2022-11-08T23:46:31.972Z,15.84
2022-11-08T23:49:00.175Z,15.96
2022-11-08T23:51:29.945Z,15.94
2022-11-08T23:53:58.251Z,15.96
2022-11-08T23:56:28.145Z,15.82
2022-11-08T23:58:59.194Z,15.90
